sensor_id;sensor_type;location;lat;lon;timestamp;pressure;altitude;pressure_sealevel;temperature;humidity
13456;BME280;6800;50.940;6.940;2023-01-19T00:00:33;99554.09;;;12.01;40.34
13456;BME280;6800;50.940;6.940;2023-01-19T00:04:33;99560.19;;;11.90;40.48
13456;BME280;6800;50.940;6.940;2023-01-19T00:08:33;99549.53;;;11.60;40.98
13456;BME280;6800;50.940;6.940;2023-01-19T00:12:35;99549.66;;;11.81;40.43
13456;BME280;6800;50.940;6.940;2023-01-19T00:16:35;99553.75;;;11.94;40.18
13456;BME280;6800;50.940;6.940;2023-01-19T00:20:35;99553.31;;;11.78;40.18
13456;BME280;6800;50.940;6.940;2023-01-19T00:24:35;99547.78;;;12.03;40.06
13456;BME280;6800;50.940;6.940;2023-01-19T00:28:35;99556.38;;;11.94;40.16
13456;BME280;6800;50.940;6.940;2023-01-19T00:32:36;99553.22;;;12.11;39.42
13456;BME280;6800;50.940;6.940;2023-01-19T00:36:36;99550.88;;;12.08;40.19
13456;BME280;6800;50.940;6.940;2023-01-19T00:40:36;99551.31;;;12.13;39.93
13456;BME280;6800;50.940;6.940;2023-01-19T00:44:36;99554.78;;;12.34;39.39
13456;BME280;6800;50.940;6.940;2023-01-19T00:48:37;99554.78;;;12.03;40.36
13456;BME280;6800;50.940;6.940;2023-01-19T00:52:38;99542.88;;;12.41;39.92
13456;BME280;6800;50.940;6.940;2023-01-19T00:56:38;99533.13;;;12.12;39.94
13456;BME280;6800;50.940;6.940;2023-01-19T01:00:39;99537.78;;;12.08;40.10
13456;BME280;6800;50.940;6.940;2023-01-19T01:04:39;99531.59;;;12.09;39.81
13456;BME280;6800;50.940;6.940;2023-01-19T01:08:39;99541.47;;;12.37;39.29
13456;BME280;6800;50.940;6.940;2023-01-19T01:12:40;99542.25;;;12.49;39.13
13456;BME280;6800;50.940;6.940;2023-01-19T01:16:41;99540.44;;;12.70;39.19
13456;BME280;6800;50.940;6.940;2023-01-19T01:20:41;99536.50;;;12.55;38.93
13456;BME280;6800;50.940;6.940;2023-01-19T01:24:41;99543.00;;;12.61;38.53
13456;BME280;6800;50.940;6.940;2023-01-19T01:28:42;99550.47;;;12.44;38.59
13456;BME280;6800;50.940;6.940;2023-01-19T01:32:42;99553.38;;;12.30;39.72
13456;BME280;6800;50.940;6.940;2023-01-19T01:36:42;99555.66;;;12.24;39.54
13456;BME280;6800;50.940;6.940;2023-01-19T01:40:43;99573.56;;;12.39;39.43
13456;BME280;6800;50.940;6.940;2023-01-19T01:53:11;99577.16;;;12.80;38.35
13456;BME280;6800;50.940;6.940;2023-01-19T01:57:13;99577.09;;;12.70;38.72
13456;BME280;6800;50.940;6.940;2023-01-19T02:01:13;99570.88;;;12.30;39.33
13456;BME280;6800;50.940;6.940;2023-01-19T02:05:33;99564.34;;;11.93;39.94
13456;BME280;6800;50.940;6.940;2023-01-19T02:09:36;99570.22;;;12.17;39.73
13456;BME280;6800;50.940;6.940;2023-01-19T02:13:55;99567.09;;;12.23;39.54
13456;BME280;6800;50.940;6.940;2023-01-19T02:17:56;99565.47;;;12.42;39.05
13456;BME280;6800;50.940;6.940;2023-01-19T02:22:02;99566.44;;;12.10;39.78
13456;BME280;6800;50.940;6.940;2023-01-19T02:26:04;99565.72;;;12.39;39.54
13456;BME280;6800;50.940;6.940;2023-01-19T02:30:07;99558.38;;;12.33;39.46
13456;BME280;6800;50.940;6.940;2023-01-19T02:34:10;99556.75;;;11.90;40.26
13456;BME280;6800;50.940;6.940;2023-01-19T02:38:12;99548.78;;;12.23;39.49
13456;BME280;6800;50.940;6.940;2023-01-19T02:42:17;99559.56;;;12.29;39.47
13456;BME280;6800;50.940;6.940;2023-01-19T02:46:20;99553.22;;;12.11;40.09
13456;BME280;6800;50.940;6.940;2023-01-19T02:50:39;99545.91;;;12.26;39.37
13456;BME280;6800;50.940;6.940;2023-01-19T02:58:49;99560.00;;;12.14;40.18
13456;BME280;6800;50.940;6.940;2023-01-19T03:07:20;99569.72;;;12.43;38.98
13456;BME280;6800;50.940;6.940;2023-01-19T03:11:27;99559.28;;;12.12;39.81
13456;BME280;6800;50.940;6.940;2023-01-19T03:15:39;99568.41;;;12.17;39.56
13456;BME280;6800;50.940;6.940;2023-01-19T03:19:42;99555.75;;;12.02;39.84
13456;BME280;6800;50.940;6.940;2023-01-19T03:23:46;99562.97;;;12.09;39.77
13456;BME280;6800;50.940;6.940;2023-01-19T03:27:51;99570.09;;;12.18;39.76
13456;BME280;6800;50.940;6.940;2023-01-19T03:31:54;99563.97;;;12.29;39.61
13456;BME280;6800;50.940;6.940;2023-01-19T03:35:59;99565.66;;;11.87;39.98
13456;BME280;6800;50.940;6.940;2023-01-19T03:40:03;99559.44;;;11.99;39.91
13456;BME280;6800;50.940;6.940;2023-01-19T03:44:04;99568.00;;;12.01;39.98
13456;BME280;6800;50.940;6.940;2023-01-19T03:48:05;99567.00;;;12.13;39.33
13456;BME280;6800;50.940;6.940;2023-01-19T03:52:06;99570.81;;;12.09;39.90
13456;BME280;6800;50.940;6.940;2023-01-19T03:56:15;99567.94;;;12.23;39.63
13456;BME280;6800;50.940;6.940;2023-01-19T04:00:16;99573.72;;;11.95;40.03
13456;BME280;6800;50.940;6.940;2023-01-19T04:04:17;99570.22;;;12.17;39.71
13456;BME280;6800;50.940;6.940;2023-01-19T04:08:17;99573.16;;;12.23;39.19
13456;BME280;6800;50.940;6.940;2023-01-19T04:12:18;99571.44;;;12.02;39.89
13456;BME280;6800;50.940;6.940;2023-01-19T04:16:18;99569.56;;;12.24;39.34
13456;BME280;6800;50.940;6.940;2023-01-19T04:20:20;99564.19;;;12.05;39.82
13456;BME280;6800;50.940;6.940;2023-01-19T04:24:20;99566.28;;;12.11;39.94
13456;BME280;6800;50.940;6.940;2023-01-19T04:28:21;99559.03;;;11.83;39.71
13456;BME280;6800;50.940;6.940;2023-01-19T04:32:21;99552.72;;;12.17;39.53
13456;BME280;6800;50.940;6.940;2023-01-19T04:36:21;99561.78;;;12.66;38.28
13456;BME280;6800;50.940;6.940;2023-01-19T04:40:22;99563.53;;;12.86;38.16
13456;BME280;6800;50.940;6.940;2023-01-19T04:44:22;99555.94;;;13.03;38.02
13456;BME280;6800;50.940;6.940;2023-01-19T04:48:23;99564.84;;;12.91;37.78
13456;BME280;6800;50.940;6.940;2023-01-19T04:52:23;99568.47;;;13.30;37.98
13456;BME280;6800;50.940;6.940;2023-01-19T04:56:23;99561.38;;;13.42;37.61
13456;BME280;6800;50.940;6.940;2023-01-19T05:00:24;99570.78;;;13.23;37.99
13456;BME280;6800;50.940;6.940;2023-01-19T05:04:25;99577.75;;;13.34;37.93
13456;BME280;6800;50.940;6.940;2023-01-19T05:08:26;99566.63;;;13.51;38.11
13456;BME280;6800;50.940;6.940;2023-01-19T05:12:26;99566.81;;;13.69;37.46
13456;BME280;6800;50.940;6.940;2023-01-19T05:16:26;99572.09;;;13.39;38.61
13456;BME280;6800;50.940;6.940;2023-01-19T05:20:26;99574.44;;;13.72;37.82
13456;BME280;6800;50.940;6.940;2023-01-19T05:24:27;99576.56;;;13.57;37.92
13456;BME280;6800;50.940;6.940;2023-01-19T05:28:28;99584.09;;;13.32;38.43
13456;BME280;6800;50.940;6.940;2023-01-19T05:32:29;99586.09;;;13.49;38.80
13456;BME280;6800;50.940;6.940;2023-01-19T05:36:29;99591.97;;;13.41;39.08
13456;BME280;6800;50.940;6.940;2023-01-19T05:40:29;99591.13;;;13.31;39.93
13456;BME280;6800;50.940;6.940;2023-01-19T05:44:30;99596.97;;;13.14;40.18
13456;BME280;6800;50.940;6.940;2023-01-19T05:48:30;99599.41;;;13.06;41.09
13456;BME280;6800;50.940;6.940;2023-01-19T05:52:30;99605.59;;;13.05;41.44
13456;BME280;6800;50.940;6.940;2023-01-19T05:56:31;99603.97;;;12.93;41.56
13456;BME280;6800;50.940;6.940;2023-01-19T06:00:31;99602.97;;;12.64;42.71
13456;BME280;6800;50.940;6.940;2023-01-19T06:04:32;99605.34;;;12.55;43.27
13456;BME280;6800;50.940;6.940;2023-01-19T06:08:35;99605.47;;;12.33;44.27
13456;BME280;6800;50.940;6.940;2023-01-19T06:12:38;99603.47;;;12.26;44.11
13456;BME280;6800;50.940;6.940;2023-01-19T06:16:39;99602.88;;;12.22;44.88
13456;BME280;6800;50.940;6.940;2023-01-19T06:20:40;99616.97;;;12.10;45.80
13456;BME280;6800;50.940;6.940;2023-01-19T06:24:40;99609.78;;;12.23;45.72
13456;BME280;6800;50.940;6.940;2023-01-19T06:28:43;99609.69;;;12.14;46.03
13456;BME280;6800;50.940;6.940;2023-01-19T06:32:43;99624.31;;;12.16;45.86
13456;BME280;6800;50.940;6.940;2023-01-19T06:36:44;99617.81;;;12.00;46.44
13456;BME280;6800;50.940;6.940;2023-01-19T06:40:54;99627.34;;;11.90;46.48
13456;BME280;6800;50.940;6.940;2023-01-19T06:44:57;99627.47;;;11.77;47.00
13456;BME280;6800;50.940;6.940;2023-01-19T06:48:57;99633.53;;;11.77;47.07
13456;BME280;6800;50.940;6.940;2023-01-19T06:52:57;99638.41;;;11.60;47.53
13456;BME280;6800;50.940;6.940;2023-01-19T06:56:58;99639.19;;;12.05;46.35
13456;BME280;6800;50.940;6.940;2023-01-19T07:01:05;99648.06;;;12.24;47.41
13456;BME280;6800;50.940;6.940;2023-01-19T07:05:06;99653.09;;;12.16;46.92
13456;BME280;6800;50.940;6.940;2023-01-19T07:09:08;99658.44;;;12.15;47.09
13456;BME280;6800;50.940;6.940;2023-01-19T07:13:10;99664.06;;;11.88;47.11
13456;BME280;6800;50.940;6.940;2023-01-19T07:17:11;99666.09;;;11.85;47.03
13456;BME280;6800;50.940;6.940;2023-01-19T07:21:11;99680.22;;;11.93;47.32
13456;BME280;6800;50.940;6.940;2023-01-19T07:25:12;99678.81;;;11.89;46.98
13456;BME280;6800;50.940;6.940;2023-01-19T07:29:13;99675.00;;;11.93;46.39
13456;BME280;6800;50.940;6.940;2023-01-19T07:33:13;99678.75;;;12.22;46.59
13456;BME280;6800;50.940;6.940;2023-01-19T07:37:13;99688.16;;;12.03;46.33
13456;BME280;6800;50.940;6.940;2023-01-19T07:41:14;99691.38;;;12.06;47.06
13456;BME280;6800;50.940;6.940;2023-01-19T07:45:16;99692.69;;;12.01;47.09
13456;BME280;6800;50.940;6.940;2023-01-19T07:49:16;99690.88;;;12.23;46.48
13456;BME280;6800;50.940;6.940;2023-01-19T07:53:17;99699.31;;;12.16;46.60
13456;BME280;6800;50.940;6.940;2023-01-19T07:57:17;99699.69;;;12.11;47.26
13456;BME280;6800;50.940;6.940;2023-01-19T08:01:18;99693.75;;;12.20;46.82
13456;BME280;6800;50.940;6.940;2023-01-19T08:05:19;99702.78;;;12.16;46.83
13456;BME280;6800;50.940;6.940;2023-01-19T08:09:20;99716.53;;;12.40;46.83
13456;BME280;6800;50.940;6.940;2023-01-19T08:13:20;99705.75;;;12.23;47.45
13456;BME280;6800;50.940;6.940;2023-01-19T08:17:21;99716.22;;;12.23;47.54
13456;BME280;6800;50.940;6.940;2023-01-19T08:21:21;99724.63;;;12.48;46.83
13456;BME280;6800;50.940;6.940;2023-01-19T08:25:21;99731.63;;;12.48;46.28
13456;BME280;6800;50.940;6.940;2023-01-19T08:29:22;99731.50;;;12.49;46.62
13456;BME280;6800;50.940;6.940;2023-01-19T08:33:23;99736.22;;;12.55;46.72
13456;BME280;6800;50.940;6.940;2023-01-19T08:37:24;99745.97;;;12.65;46.60
13456;BME280;6800;50.940;6.940;2023-01-19T08:41:24;99754.81;;;12.64;46.78
13456;BME280;6800;50.940;6.940;2023-01-19T08:45:25;99759.09;;;12.53;46.27
13456;BME280;6800;50.940;6.940;2023-01-19T08:49:26;99764.09;;;12.99;46.35
13456;BME280;6800;50.940;6.940;2023-01-19T08:53:26;99771.75;;;12.91;46.44
13456;BME280;6800;50.940;6.940;2023-01-19T08:57:27;99764.25;;;12.87;46.72
13456;BME280;6800;50.940;6.940;2023-01-19T09:01:27;99779.63;;;12.80;46.18
13456;BME280;6800;50.940;6.940;2023-01-19T09:05:28;99783.34;;;13.09;45.94
13456;BME280;6800;50.940;6.940;2023-01-19T09:09:31;99783.34;;;13.09;46.53
13456;BME280;6800;50.940;6.940;2023-01-19T09:13:31;99785.00;;;12.79;46.94
13456;BME280;6800;50.940;6.940;2023-01-19T09:17:32;99788.06;;;13.26;45.52
13456;BME280;6800;50.940;6.940;2023-01-19T09:21:32;99791.22;;;13.09;45.87
13456;BME280;6800;50.940;6.940;2023-01-19T09:25:32;99790.38;;;13.09;46.08
13456;BME280;6800;50.940;6.940;2023-01-19T09:29:35;99792.34;;;13.69;45.77
13456;BME280;6800;50.940;6.940;2023-01-19T09:33:38;99792.81;;;13.74;44.91
13456;BME280;6800;50.940;6.940;2023-01-19T09:37:39;99798.78;;;13.85;44.40
13456;BME280;6800;50.940;6.940;2023-01-19T09:41:46;99805.59;;;13.67;45.21
13456;BME280;6800;50.940;6.940;2023-01-19T09:45:55;99809.63;;;13.51;44.95
13456;BME280;6800;50.940;6.940;2023-01-19T09:50:00;99812.97;;;13.53;45.58
13456;BME280;6800;50.940;6.940;2023-01-19T09:54:10;99818.75;;;13.36;45.36
13456;BME280;6800;50.940;6.940;2023-01-19T09:58:15;99820.81;;;13.53;45.57
13456;BME280;6800;50.940;6.940;2023-01-19T10:02:39;99823.47;;;13.21;45.96
13456;BME280;6800;50.940;6.940;2023-01-19T10:06:41;99830.84;;;13.48;44.82
13456;BME280;6800;50.940;6.940;2023-01-19T10:10:47;99837.44;;;13.42;45.49
13456;BME280;6800;50.940;6.940;2023-01-19T10:15:02;99840.13;;;13.20;45.76
13456;BME280;6800;50.940;6.940;2023-01-19T10:19:19;99843.88;;;13.38;46.35
13456;BME280;6800;50.940;6.940;2023-01-19T10:27:32;99841.13;;;13.08;45.82
13456;BME280;6800;50.940;6.940;2023-01-19T10:31:36;99837.88;;;13.15;46.38
13456;BME280;6800;50.940;6.940;2023-01-19T10:35:37;99849.66;;;13.21;45.51
13456;BME280;6800;50.940;6.940;2023-01-19T10:39:38;99849.66;;;13.21;45.92
13456;BME280;6800;50.940;6.940;2023-01-19T10:43:42;99845.66;;;13.06;46.18
13456;BME280;6800;50.940;6.940;2023-01-19T10:47:44;99849.44;;;13.45;45.97
13456;BME280;6800;50.940;6.940;2023-01-19T10:51:47;99852.28;;;13.73;46.01
13456;BME280;6800;50.940;6.940;2023-01-19T10:56:08;99848.69;;;13.74;46.41
13456;BME280;6800;50.940;6.940;2023-01-19T11:00:40;99851.31;;;13.74;45.50
13456;BME280;6800;50.940;6.940;2023-01-19T11:04:40;99858.28;;;13.64;45.64
13456;BME280;6800;50.940;6.940;2023-01-19T11:08:42;99857.97;;;13.58;45.87
13456;BME280;6800;50.940;6.940;2023-01-19T11:12:46;99856.97;;;13.90;45.60
13456;BME280;6800;50.940;6.940;2023-01-19T11:16:53;99856.91;;;14.01;45.24
13456;BME280;6800;50.940;6.940;2023-01-19T11:20:57;99847.41;;;13.89;45.36
13456;BME280;6800;50.940;6.940;2023-01-19T11:25:03;99854.59;;;13.87;45.47
13456;BME280;6800;50.940;6.940;2023-01-19T11:29:04;99854.78;;;14.16;45.37
13456;BME280;6800;50.940;6.940;2023-01-19T11:33:04;99857.00;;;14.21;44.60
13456;BME280;6800;50.940;6.940;2023-01-19T11:41:29;99842.06;;;14.91;42.50
13456;BME280;6800;50.940;6.940;2023-01-19T11:45:31;99830.53;;;15.60;41.35
13456;BME280;6800;50.940;6.940;2023-01-19T11:49:38;99837.22;;;16.84;38.79
13456;BME280;6800;50.940;6.940;2023-01-19T11:53:45;99840.59;;;17.74;36.96
13456;BME280;6800;50.940;6.940;2023-01-19T11:57:52;99845.94;;;16.48;37.73
13456;BME280;6800;50.940;6.940;2023-01-19T12:01:58;99842.97;;;16.33;38.86
13456;BME280;6800;50.940;6.940;2023-01-19T12:06:03;99841.22;;;16.15;39.13
13456;BME280;6800;50.940;6.940;2023-01-19T12:10:40;99853.09;;;16.92;38.12
13456;BME280;6800;50.940;6.940;2023-01-19T12:14:53;99843.47;;;16.83;38.55
13456;BME280;6800;50.940;6.940;2023-01-19T12:19:03;99852.53;;;16.71;38.36
13456;BME280;6800;50.940;6.940;2023-01-19T12:23:26;99852.38;;;16.46;38.13
13456;BME280;6800;50.940;6.940;2023-01-19T12:27:41;99859.38;;;16.18;39.21
13456;BME280;6800;50.940;6.940;2023-01-19T12:31:42;99847.06;;;16.09;38.80
13456;BME280;6800;50.940;6.940;2023-01-19T12:35:56;99849.09;;;16.24;38.80
13456;BME280;6800;50.940;6.940;2023-01-19T12:40:02;99851.72;;;16.34;38.03
13456;BME280;6800;50.940;6.940;2023-01-19T12:48:23;99858.50;;;16.36;38.75
13456;BME280;6800;50.940;6.940;2023-01-19T12:52:34;99859.84;;;15.94;38.41
13456;BME280;6800;50.940;6.940;2023-01-19T12:56:39;99854.03;;;15.91;38.89
13456;BME280;6800;50.940;6.940;2023-01-19T13:00:41;99860.66;;;15.95;38.56
13456;BME280;6800;50.940;6.940;2023-01-19T13:05:10;99864.28;;;15.84;38.46
13456;BME280;6800;50.940;6.940;2023-01-19T13:09:30;99862.25;;;16.34;38.07
13456;BME280;6800;50.940;6.940;2023-01-19T13:13:33;99858.50;;;16.27;38.22
13456;BME280;6800;50.940;6.940;2023-01-19T13:21:47;99869.44;;;15.86;38.29
13456;BME280;6800;50.940;6.940;2023-01-19T13:25:51;99875.91;;;16.01;38.38
13456;BME280;6800;50.940;6.940;2023-01-19T13:29:52;99864.44;;;15.92;38.54
13456;BME280;6800;50.940;6.940;2023-01-19T13:33:55;99879.84;;;15.78;38.25
13456;BME280;6800;50.940;6.940;2023-01-19T13:37:57;99872.03;;;16.05;38.19
13456;BME280;6800;50.940;6.940;2023-01-19T13:42:05;99878.56;;;16.01;37.43
13456;BME280;6800;50.940;6.940;2023-01-19T13:46:11;99875.25;;;15.80;38.02
13456;BME280;6800;50.940;6.940;2023-01-19T13:50:24;99883.28;;;15.69;38.43
13456;BME280;6800;50.940;6.940;2023-01-19T13:54:25;99883.53;;;15.85;38.09
13456;BME280;6800;50.940;6.940;2023-01-19T13:58:25;99896.28;;;15.41;38.49
13456;BME280;6800;50.940;6.940;2023-01-19T14:02:27;99896.84;;;15.45;38.79
13456;BME280;6800;50.940;6.940;2023-01-19T14:06:32;99892.81;;;15.50;38.37
13456;BME280;6800;50.940;6.940;2023-01-19T14:14:45;99892.81;;;15.50;37.48
13456;BME280;6800;50.940;6.940;2023-01-19T14:18:58;99900.41;;;15.34;37.93
13456;BME280;6800;50.940;6.940;2023-01-19T14:22:58;99894.84;;;15.28;38.33
13456;BME280;6800;50.940;6.940;2023-01-19T14:27:08;99894.75;;;15.48;38.14
13456;BME280;6800;50.940;6.940;2023-01-19T14:31:21;99904.69;;;15.16;39.01
13456;BME280;6800;50.940;6.940;2023-01-19T14:35:24;99910.69;;;14.88;39.46
13456;BME280;6800;50.940;6.940;2023-01-19T14:39:27;99915.16;;;15.07;39.36
13456;BME280;6800;50.940;6.940;2023-01-19T14:43:28;99919.34;;;15.28;39.13
13456;BME280;6800;50.940;6.940;2023-01-19T14:47:38;99922.09;;;15.17;40.07
13456;BME280;6800;50.940;6.940;2023-01-19T14:51:43;99923.63;;;15.29;40.08
13456;BME280;6800;50.940;6.940;2023-01-19T14:55:46;99926.84;;;15.33;39.54
13456;BME280;6800;50.940;6.940;2023-01-19T14:59:48;99931.75;;;15.07;39.28
13456;BME280;6800;50.940;6.940;2023-01-19T15:03:49;99931.56;;;15.39;38.75
13456;BME280;6800;50.940;6.940;2023-01-19T15:07:49;99933.06;;;15.22;38.88
13456;BME280;6800;50.940;6.940;2023-01-19T15:11:51;99939.06;;;14.64;39.06
13456;BME280;6800;50.940;6.940;2023-01-19T15:15:52;99942.44;;;15.25;38.20
13456;BME280;6800;50.940;6.940;2023-01-19T15:19:55;99948.78;;;15.13;38.43
13456;BME280;6800;50.940;6.940;2023-01-19T15:23:56;99952.66;;;15.09;38.82
13456;BME280;6800;50.940;6.940;2023-01-19T15:27:57;99954.56;;;14.67;39.42
13456;BME280;6800;50.940;6.940;2023-01-19T15:31:58;99960.22;;;15.02;38.78
13456;BME280;6800;50.940;6.940;2023-01-19T15:35:58;99958.13;;;14.96;38.18
13456;BME280;6800;50.940;6.940;2023-01-19T15:39:59;99956.03;;;14.90;38.36
13456;BME280;6800;50.940;6.940;2023-01-19T15:43:59;99950.34;;;14.85;37.70
13456;BME280;6800;50.940;6.940;2023-01-19T15:48:01;99951.66;;;15.00;38.54
13456;BME280;6800;50.940;6.940;2023-01-19T15:52:03;99953.28;;;14.92;38.20
13456;BME280;6800;50.940;6.940;2023-01-19T15:56:03;99966.72;;;14.68;38.51
13456;BME280;6800;50.940;6.940;2023-01-19T16:00:04;99966.31;;;14.72;38.29
13456;BME280;6800;50.940;6.940;2023-01-19T16:04:05;99969.72;;;14.84;37.93
13456;BME280;6800;50.940;6.940;2023-01-19T16:08:06;99972.03;;;14.77;38.28
13456;BME280;6800;50.940;6.940;2023-01-19T16:12:07;99977.53;;;14.74;38.07
13456;BME280;6800;50.940;6.940;2023-01-19T16:16:13;99980.31;;;14.73;38.43
13456;BME280;6800;50.940;6.940;2023-01-19T16:20:13;99977.63;;;14.43;39.17
13456;BME280;6800;50.940;6.940;2023-01-19T16:24:14;99981.75;;;14.56;38.22
13456;BME280;6800;50.940;6.940;2023-01-19T16:28:14;99986.78;;;14.69;38.20
13456;BME280;6800;50.940;6.940;2023-01-19T16:32:14;99987.69;;;14.58;37.92
13456;BME280;6800;50.940;6.940;2023-01-19T16:36:22;99991.22;;;14.48;37.44
13456;BME280;6800;50.940;6.940;2023-01-19T16:40:24;99992.50;;;14.53;37.84
13456;BME280;6800;50.940;6.940;2023-01-19T16:44:25;100000.44;;;14.42;37.71
13456;BME280;6800;50.940;6.940;2023-01-19T16:48:26;100012.41;;;14.35;37.94
13456;BME280;6800;50.940;6.940;2023-01-19T16:52:26;100011.34;;;14.38;37.68
13456;BME280;6800;50.940;6.940;2023-01-19T16:56:27;100005.56;;;14.44;37.62
13456;BME280;6800;50.940;6.940;2023-01-19T17:00:27;100019.25;;;14.47;37.42
13456;BME280;6800;50.940;6.940;2023-01-19T17:04:43;100009.97;;;14.43;37.20
13456;BME280;6800;50.940;6.940;2023-01-19T17:08:43;100019.91;;;14.40;37.91
13456;BME280;6800;50.940;6.940;2023-01-19T17:12:43;100030.97;;;14.64;37.25
13456;BME280;6800;50.940;6.940;2023-01-19T17:16:44;100029.25;;;14.53;37.06
13456;BME280;6800;50.940;6.940;2023-01-19T17:20:44;100026.81;;;14.41;37.30
13456;BME280;6800;50.940;6.940;2023-01-19T17:24:45;100030.34;;;14.30;37.24
13456;BME280;6800;50.940;6.940;2023-01-19T17:28:46;100031.38;;;14.39;37.26
13456;BME280;6800;50.940;6.940;2023-01-19T17:32:46;100034.66;;;14.20;37.07
13456;BME280;6800;50.940;6.940;2023-01-19T17:36:49;100033.84;;;14.40;36.90
13456;BME280;6800;50.940;6.940;2023-01-19T17:40:49;100039.88;;;14.31;37.43
13456;BME280;6800;50.940;6.940;2023-01-19T17:44:49;100041.53;;;14.32;37.29
13456;BME280;6800;50.940;6.940;2023-01-19T17:48:55;100044.50;;;14.39;37.42
13456;BME280;6800;50.940;6.940;2023-01-19T17:52:55;100050.81;;;14.36;37.06
13456;BME280;6800;50.940;6.940;2023-01-19T17:56:55;100045.00;;;14.33;37.27
13456;BME280;6800;50.940;6.940;2023-01-19T18:00:56;100050.72;;;14.27;36.76
13456;BME280;6800;50.940;6.940;2023-01-19T18:04:56;100046.47;;;14.15;36.91
13456;BME280;6800;50.940;6.940;2023-01-19T18:08:59;100047.63;;;14.33;36.86
13456;BME280;6800;50.940;6.940;2023-01-19T18:13:00;100054.47;;;14.13;37.74
13456;BME280;6800;50.940;6.940;2023-01-19T18:17:00;100050.13;;;14.23;37.11
13456;BME280;6800;50.940;6.940;2023-01-19T18:21:05;100053.25;;;14.17;37.45
13456;BME280;6800;50.940;6.940;2023-01-19T18:25:06;100054.91;;;13.97;37.08
13456;BME280;6800;50.940;6.940;2023-01-19T18:29:07;100059.75;;;14.02;37.34
13456;BME280;6800;50.940;6.940;2023-01-19T18:33:07;100066.72;;;13.92;37.29
13456;BME280;6800;50.940;6.940;2023-01-19T18:37:08;100058.97;;;13.90;37.85
13456;BME280;6800;50.940;6.940;2023-01-19T18:41:13;100062.84;;;14.07;37.82
13456;BME280;6800;50.940;6.940;2023-01-19T18:45:14;100070.97;;;13.50;39.55
13456;BME280;6800;50.940;6.940;2023-01-19T18:49:14;100067.22;;;13.64;39.38
13456;BME280;6800;50.940;6.940;2023-01-19T18:53:14;100085.44;;;13.87;39.86
13456;BME280;6800;50.940;6.940;2023-01-19T18:57:14;100073.59;;;13.61;40.84
13456;BME280;6800;50.940;6.940;2023-01-19T19:01:28;100072.41;;;13.10;41.43
13456;BME280;6800;50.940;6.940;2023-01-19T19:05:28;100071.53;;;13.65;40.48
13456;BME280;6800;50.940;6.940;2023-01-19T19:09:29;100075.09;;;13.75;40.22
13456;BME280;6800;50.940;6.940;2023-01-19T19:13:29;100071.03;;;13.71;40.48
13456;BME280;6800;50.940;6.940;2023-01-19T19:17:29;100072.59;;;13.73;40.51
13456;BME280;6800;50.940;6.940;2023-01-19T19:21:29;100068.78;;;13.66;40.06
13456;BME280;6800;50.940;6.940;2023-01-19T19:25:31;100070.13;;;13.61;40.76
13456;BME280;6800;50.940;6.940;2023-01-19T19:29:31;100080.09;;;13.78;40.37
13456;BME280;6800;50.940;6.940;2023-01-19T19:33:32;100076.91;;;13.63;40.02
13456;BME280;6800;50.940;6.940;2023-01-19T19:37:33;100086.31;;;13.66;40.38
13456;BME280;6800;50.940;6.940;2023-01-19T19:41:33;100090.03;;;13.52;40.33
13456;BME280;6800;50.940;6.940;2023-01-19T19:45:35;100091.00;;;13.29;40.50
13456;BME280;6800;50.940;6.940;2023-01-19T19:49:36;100094.91;;;13.35;40.25
13456;BME280;6800;50.940;6.940;2023-01-19T19:53:37;100091.81;;;13.18;39.92
13456;BME280;6800;50.940;6.940;2023-01-19T19:57:39;100095.03;;;13.33;40.35
13456;BME280;6800;50.940;6.940;2023-01-19T20:01:39;100095.28;;;13.19;40.10
13456;BME280;6800;50.940;6.940;2023-01-19T20:05:39;100102.41;;;13.39;39.81
13456;BME280;6800;50.940;6.940;2023-01-19T20:09:39;100098.94;;;13.27;40.48
13456;BME280;6800;50.940;6.940;2023-01-19T20:13:41;100110.09;;;12.96;40.23
13456;BME280;6800;50.940;6.940;2023-01-19T20:17:42;100119.91;;;13.05;40.31
13456;BME280;6800;50.940;6.940;2023-01-19T20:21:42;100118.13;;;13.17;40.14
13456;BME280;6800;50.940;6.940;2023-01-19T20:25:43;100120.41;;;13.10;40.29
13456;BME280;6800;50.940;6.940;2023-01-19T20:29:43;100125.25;;;13.15;40.32
13456;BME280;6800;50.940;6.940;2023-01-19T20:33:44;100128.34;;;13.09;40.64
13456;BME280;6800;50.940;6.940;2023-01-19T20:37:45;100133.00;;;13.05;40.51
13456;BME280;6800;50.940;6.940;2023-01-19T20:41:46;100137.00;;;12.98;40.96
13456;BME280;6800;50.940;6.940;2023-01-19T20:45:46;100138.44;;;12.91;40.71
13456;BME280;6800;50.940;6.940;2023-01-19T20:49:46;100147.72;;;12.95;40.51
13456;BME280;6800;50.940;6.940;2023-01-19T20:53:46;100156.19;;;12.99;40.60
13456;BME280;6800;50.940;6.940;2023-01-19T20:57:47;100148.28;;;12.88;41.12
13456;BME280;6800;50.940;6.940;2023-01-19T21:01:48;100159.00;;;12.96;40.75
13456;BME280;6800;50.940;6.940;2023-01-19T21:05:48;100162.75;;;13.04;41.05
13456;BME280;6800;50.940;6.940;2023-01-19T21:09:48;100160.03;;;13.06;40.41
13456;BME280;6800;50.940;6.940;2023-01-19T21:13:50;100174.34;;;13.13;40.79
13456;BME280;6800;50.940;6.940;2023-01-19T21:17:54;100171.38;;;13.17;40.59
13456;BME280;6800;50.940;6.940;2023-01-19T21:21:56;100181.59;;;13.09;40.15
13456;BME280;6800;50.940;6.940;2023-01-19T21:25:58;100185.78;;;13.12;40.50
13456;BME280;6800;50.940;6.940;2023-01-19T21:29:58;100196.53;;;13.31;40.02
13456;BME280;6800;50.940;6.940;2023-01-19T21:34:01;100203.16;;;13.13;39.67
13456;BME280;6800;50.940;6.940;2023-01-19T21:38:01;100204.84;;;13.14;39.97
13456;BME280;6800;50.940;6.940;2023-01-19T21:42:01;100207.72;;;13.22;39.97
13456;BME280;6800;50.940;6.940;2023-01-19T21:46:21;100219.88;;;13.23;39.63
13456;BME280;6800;50.940;6.940;2023-01-19T21:50:27;100224.75;;;13.16;39.82
13456;BME280;6800;50.940;6.940;2023-01-19T21:54:28;100227.19;;;13.07;39.78
13456;BME280;6800;50.940;6.940;2023-01-19T21:58:28;100226.41;;;13.17;39.83
13456;BME280;6800;50.940;6.940;2023-01-19T22:02:28;100228.47;;;13.01;39.97
13456;BME280;6800;50.940;6.940;2023-01-19T22:06:28;100233.88;;;13.11;39.93
13456;BME280;6800;50.940;6.940;2023-01-19T22:10:29;100238.41;;;13.09;39.94
13456;BME280;6800;50.940;6.940;2023-01-19T22:14:29;100238.44;;;13.20;39.70